sensor_id;sensor_type;location;lat;lon;timestamp;temperature;humidity
14252;DHT22;7210;51.502;10.722;2024-02-16T00:02:00;7.40;1.00
14252;DHT22;7210;51.502;10.722;2024-02-16T00:04:28;7.40;1.00
14252;DHT22;7210;51.502;10.722;2024-02-16T00:06:55;7.40;1.00
14252;DHT22;7210;51.502;10.722;2024-02-16T00:09:22;7.40;1.00
14252;DHT22;7210;51.502;10.722;2024-02-16T00:11:50;7.40;1.00
14252;DHT22;7210;51.502;10.722;2024-02-16T00:14:18;7.40;1.00
14252;DHT22;7210;51.502;10.722;2024-02-16T00:16:47;7.40;1.00
14252;DHT22;7210;51.502;10.722;2024-02-16T00:19:14;7.40;1.00
14252;DHT22;7210;51.502;10.722;2024-02-16T00:21:41;7.40;1.00
14252;DHT22;7210;51.502;10.722;2024-02-16T00:24:09;7.40;1.00
14252;DHT22;7210;51.502;10.722;2024-02-16T00:26:36;7.40;1.00
14252;DHT22;7210;51.502;10.722;2024-02-16T00:29:06;7.40;1.00
14252;DHT22;7210;51.502;10.722;2024-02-16T00:31:34;7.40;1.00
14252;DHT22;7210;51.502;10.722;2024-02-16T00:34:01;7.40;1.00
14252;DHT22;7210;51.502;10.722;2024-02-16T00:36:28;7.40;1.00
14252;DHT22;7210;51.502;10.722;2024-02-16T00:38:56;7.40;1.00
14252;DHT22;7210;51.502;10.722;2024-02-16T00:41:24;7.40;1.00
14252;DHT22;7210;51.502;10.722;2024-02-16T00:43:51;7.40;1.00
14252;DHT22;7210;51.502;10.722;2024-02-16T00:46:20;7.40;1.00
14252;DHT22;7210;51.502;10.722;2024-02-16T00:48:52;7.40;1.00
14252;DHT22;7210;51.502;10.722;2024-02-16T00:51:20;7.40;1.00
14252;DHT22;7210;51.502;10.722;2024-02-16T00:53:49;7.40;1.00
14252;DHT22;7210;51.502;10.722;2024-02-16T00:56:16;7.30;1.00
14252;DHT22;7210;51.502;10.722;2024-02-16T00:58:43;7.30;1.00
14252;DHT22;7210;51.502;10.722;2024-02-16T01:01:10;7.30;1.00
14252;DHT22;7210;51.502;10.722;2024-02-16T01:03:40;7.30;1.00
14252;DHT22;7210;51.502;10.722;2024-02-16T01:06:07;7.30;1.00
14252;DHT22;7210;51.502;10.722;2024-02-16T01:08:35;7.30;1.00
14252;DHT22;7210;51.502;10.722;2024-02-16T01:11:03;7.30;1.00
14252;DHT22;7210;51.502;10.722;2024-02-16T01:13:30;7.30;1.00
14252;DHT22;7210;51.502;10.722;2024-02-16T01:16:03;7.30;1.00
14252;DHT22;7210;51.502;10.722;2024-02-16T01:18:31;7.30;1.00
14252;DHT22;7210;51.502;10.722;2024-02-16T01:20:59;7.20;1.00
14252;DHT22;7210;51.502;10.722;2024-02-16T01:23:27;7.20;1.00
14252;DHT22;7210;51.502;10.722;2024-02-16T01:25:54;7.20;1.00
14252;DHT22;7210;51.502;10.722;2024-02-16T01:28:21;7.10;1.00
14252;DHT22;7210;51.502;10.722;2024-02-16T01:30:48;6.90;1.00
14252;DHT22;7210;51.502;10.722;2024-02-16T01:33:16;6.80;1.00
14252;DHT22;7210;51.502;10.722;2024-02-16T01:35:43;6.60;1.00
14252;DHT22;7210;51.502;10.722;2024-02-16T01:38:16;6.60;1.00
14252;DHT22;7210;51.502;10.722;2024-02-16T01:40:44;6.50;1.00
14252;DHT22;7210;51.502;10.722;2024-02-16T01:43:11;6.50;1.00
14252;DHT22;7210;51.502;10.722;2024-02-16T01:45:38;6.50;1.00
14252;DHT22;7210;51.502;10.722;2024-02-16T01:48:05;6.50;1.00
14252;DHT22;7210;51.502;10.722;2024-02-16T01:50:33;6.50;1.00
14252;DHT22;7210;51.502;10.722;2024-02-16T01:53:00;6.50;1.00
14252;DHT22;7210;51.502;10.722;2024-02-16T01:55:29;6.50;1.00
14252;DHT22;7210;51.502;10.722;2024-02-16T01:57:57;6.50;1.00
14252;DHT22;7210;51.502;10.722;2024-02-16T02:00:26;6.60;1.00
14252;DHT22;7210;51.502;10.722;2024-02-16T02:02:53;6.50;1.00
14252;DHT22;7210;51.502;10.722;2024-02-16T02:05:20;6.60;1.00
14252;DHT22;7210;51.502;10.722;2024-02-16T02:07:47;6.60;1.00
14252;DHT22;7210;51.502;10.722;2024-02-16T02:10:14;6.60;1.00
14252;DHT22;7210;51.502;10.722;2024-02-16T02:12:43;6.70;1.00
14252;DHT22;7210;51.502;10.722;2024-02-16T02:15:10;6.60;1.00
14252;DHT22;7210;51.502;10.722;2024-02-16T02:17:37;6.60;1.00
14252;DHT22;7210;51.502;10.722;2024-02-16T02:20:06;6.50;1.00
14252;DHT22;7210;51.502;10.722;2024-02-16T02:22:37;6.50;1.00
14252;DHT22;7210;51.502;10.722;2024-02-16T02:25:05;6.50;1.00
14252;DHT22;7210;51.502;10.722;2024-02-16T02:27:36;6.40;1.00
14252;DHT22;7210;51.502;10.722;2024-02-16T02:30:04;6.30;1.00
14252;DHT22;7210;51.502;10.722;2024-02-16T02:32:39;6.20;1.00
14252;DHT22;7210;51.502;10.722;2024-02-16T02:35:08;6.20;1.00
14252;DHT22;7210;51.502;10.722;2024-02-16T02:37:40;6.20;1.00
14252;DHT22;7210;51.502;10.722;2024-02-16T02:40:09;6.10;1.00
14252;DHT22;7210;51.502;10.722;2024-02-16T02:42:36;6.10;1.00
14252;DHT22;7210;51.502;10.722;2024-02-16T02:45:04;6.10;1.00
14252;DHT22;7210;51.502;10.722;2024-02-16T02:47:32;6.10;1.00
14252;DHT22;7210;51.502;10.722;2024-02-16T02:49:59;6.10;1.00
14252;DHT22;7210;51.502;10.722;2024-02-16T02:52:26;6.00;1.00
14252;DHT22;7210;51.502;10.722;2024-02-16T02:54:58;6.00;1.00
14252;DHT22;7210;51.502;10.722;2024-02-16T02:57:26;6.00;1.00
14252;DHT22;7210;51.502;10.722;2024-02-16T02:59:53;6.00;1.00
14252;DHT22;7210;51.502;10.722;2024-02-16T03:02:33;6.00;1.00
14252;DHT22;7210;51.502;10.722;2024-02-16T03:05:00;6.00;1.00
14252;DHT22;7210;51.502;10.722;2024-02-16T03:07:27;6.00;1.00
14252;DHT22;7210;51.502;10.722;2024-02-16T03:09:54;6.00;1.00
14252;DHT22;7210;51.502;10.722;2024-02-16T03:12:23;6.10;1.00
14252;DHT22;7210;51.502;10.722;2024-02-16T03:14:50;6.10;1.00
14252;DHT22;7210;51.502;10.722;2024-02-16T03:17:18;6.10;1.00
14252;DHT22;7210;51.502;10.722;2024-02-16T03:19:45;6.10;1.00
14252;DHT22;7210;51.502;10.722;2024-02-16T03:22:12;6.20;1.00
14252;DHT22;7210;51.502;10.722;2024-02-16T03:24:39;6.20;1.00
14252;DHT22;7210;51.502;10.722;2024-02-16T03:27:06;6.20;1.00
14252;DHT22;7210;51.502;10.722;2024-02-16T03:29:35;6.20;1.00
14252;DHT22;7210;51.502;10.722;2024-02-16T03:32:03;6.20;1.00
14252;DHT22;7210;51.502;10.722;2024-02-16T03:34:30;6.10;1.00
14252;DHT22;7210;51.502;10.722;2024-02-16T03:37:03;6.20;1.00
14252;DHT22;7210;51.502;10.722;2024-02-16T03:39:30;6.20;1.00
14252;DHT22;7210;51.502;10.722;2024-02-16T03:41:58;6.20;1.00
14252;DHT22;7210;51.502;10.722;2024-02-16T03:44:25;6.20;1.00
14252;DHT22;7210;51.502;10.722;2024-02-16T03:46:53;6.20;1.00
14252;DHT22;7210;51.502;10.722;2024-02-16T03:49:20;6.20;1.00
14252;DHT22;7210;51.502;10.722;2024-02-16T03:51:47;6.20;1.00
14252;DHT22;7210;51.502;10.722;2024-02-16T03:54:14;6.30;1.00
14252;DHT22;7210;51.502;10.722;2024-02-16T03:56:41;6.20;1.00
14252;DHT22;7210;51.502;10.722;2024-02-16T03:59:10;6.30;1.00
14252;DHT22;7210;51.502;10.722;2024-02-16T04:01:39;6.30;1.00
14252;DHT22;7210;51.502;10.722;2024-02-16T04:04:08;6.40;1.00
14252;DHT22;7210;51.502;10.722;2024-02-16T04:06:36;6.50;99.90
14252;DHT22;7210;51.502;10.722;2024-02-16T04:09:03;6.50;99.90
14252;DHT22;7210;51.502;10.722;2024-02-16T04:11:31;6.50;1.40
14252;DHT22;7210;51.502;10.722;2024-02-16T04:14:03;6.50;1.00
14252;DHT22;7210;51.502;10.722;2024-02-16T04:16:33;6.60;1.00
14252;DHT22;7210;51.502;10.722;2024-02-16T04:19:00;6.60;1.00
14252;DHT22;7210;51.502;10.722;2024-02-16T04:21:29;6.60;1.00
14252;DHT22;7210;51.502;10.722;2024-02-16T04:23:56;6.60;1.00
14252;DHT22;7210;51.502;10.722;2024-02-16T04:26:23;6.60;1.00
14252;DHT22;7210;51.502;10.722;2024-02-16T04:28:50;6.60;1.00
14252;DHT22;7210;51.502;10.722;2024-02-16T04:31:17;6.70;1.00
14252;DHT22;7210;51.502;10.722;2024-02-16T04:33:45;6.80;1.00
14252;DHT22;7210;51.502;10.722;2024-02-16T04:36:12;6.70;1.00
14252;DHT22;7210;51.502;10.722;2024-02-16T04:38:42;6.80;1.00
14252;DHT22;7210;51.502;10.722;2024-02-16T04:41:09;6.80;1.00
14252;DHT22;7210;51.502;10.722;2024-02-16T04:43:36;6.70;1.00
14252;DHT22;7210;51.502;10.722;2024-02-16T04:46:03;6.70;1.00
14252;DHT22;7210;51.502;10.722;2024-02-16T04:48:31;6.60;1.00
14252;DHT22;7210;51.502;10.722;2024-02-16T04:50:59;6.60;1.00
14252;DHT22;7210;51.502;10.722;2024-02-16T04:53:27;6.60;1.00
14252;DHT22;7210;51.502;10.722;2024-02-16T04:55:55;6.70;1.00
14252;DHT22;7210;51.502;10.722;2024-02-16T04:58:23;6.70;1.00
14252;DHT22;7210;51.502;10.722;2024-02-16T05:00:50;6.60;1.00
14252;DHT22;7210;51.502;10.722;2024-02-16T05:03:18;6.60;1.00
14252;DHT22;7210;51.502;10.722;2024-02-16T05:05:45;6.60;1.00
14252;DHT22;7210;51.502;10.722;2024-02-16T05:08:12;6.50;1.00
14252;DHT22;7210;51.502;10.722;2024-02-16T05:10:39;6.50;1.00
14252;DHT22;7210;51.502;10.722;2024-02-16T05:13:08;6.50;1.00
14252;DHT22;7210;51.502;10.722;2024-02-16T05:15:36;6.50;1.00
14252;DHT22;7210;51.502;10.722;2024-02-16T05:18:04;6.50;1.00
14252;DHT22;7210;51.502;10.722;2024-02-16T05:20:32;6.50;1.00
14252;DHT22;7210;51.502;10.722;2024-02-16T05:22:59;6.40;1.00
14252;DHT22;7210;51.502;10.722;2024-02-16T05:25:26;6.40;1.00
14252;DHT22;7210;51.502;10.722;2024-02-16T05:27:53;6.50;1.00
14252;DHT22;7210;51.502;10.722;2024-02-16T05:30:22;6.60;1.00
14252;DHT22;7210;51.502;10.722;2024-02-16T05:32:49;6.50;1.00
14252;DHT22;7210;51.502;10.722;2024-02-16T05:35:18;6.60;1.00
14252;DHT22;7210;51.502;10.722;2024-02-16T05:37:46;6.60;1.00
14252;DHT22;7210;51.502;10.722;2024-02-16T05:40:17;6.60;1.00
14252;DHT22;7210;51.502;10.722;2024-02-16T05:42:50;6.60;1.00
14252;DHT22;7210;51.502;10.722;2024-02-16T05:45:18;6.60;1.00
14252;DHT22;7210;51.502;10.722;2024-02-16T05:47:49;6.60;1.00
14252;DHT22;7210;51.502;10.722;2024-02-16T05:50:17;6.60;1.00
14252;DHT22;7210;51.502;10.722;2024-02-16T05:52:44;6.60;1.00
14252;DHT22;7210;51.502;10.722;2024-02-16T05:55:12;6.70;1.00
14252;DHT22;7210;51.502;10.722;2024-02-16T05:57:39;6.70;1.00
14252;DHT22;7210;51.502;10.722;2024-02-16T06:00:08;6.80;1.00
14252;DHT22;7210;51.502;10.722;2024-02-16T06:02:36;6.80;1.00
14252;DHT22;7210;51.502;10.722;2024-02-16T06:05:05;6.80;1.00
14252;DHT22;7210;51.502;10.722;2024-02-16T06:07:39;6.80;1.00
14252;DHT22;7210;51.502;10.722;2024-02-16T06:10:07;6.80;1.00
14252;DHT22;7210;51.502;10.722;2024-02-16T06:12:36;6.80;1.00
14252;DHT22;7210;51.502;10.722;2024-02-16T06:15:05;6.80;1.00
14252;DHT22;7210;51.502;10.722;2024-02-16T06:17:32;6.90;1.00
14252;DHT22;7210;51.502;10.722;2024-02-16T06:20:00;6.80;1.00
14252;DHT22;7210;51.502;10.722;2024-02-16T06:22:30;6.80;1.00
14252;DHT22;7210;51.502;10.722;2024-02-16T06:24:58;6.80;1.00
14252;DHT22;7210;51.502;10.722;2024-02-16T06:27:25;6.80;1.00
14252;DHT22;7210;51.502;10.722;2024-02-16T06:29:52;6.80;1.00
14252;DHT22;7210;51.502;10.722;2024-02-16T06:32:19;6.80;1.00
14252;DHT22;7210;51.502;10.722;2024-02-16T06:34:46;6.80;1.00
14252;DHT22;7210;51.502;10.722;2024-02-16T06:37:13;6.80;1.00
14252;DHT22;7210;51.502;10.722;2024-02-16T06:39:47;6.70;1.00
14252;DHT22;7210;51.502;10.722;2024-02-16T06:42:15;6.70;1.00
14252;DHT22;7210;51.502;10.722;2024-02-16T06:44:42;6.70;1.00
14252;DHT22;7210;51.502;10.722;2024-02-16T06:47:15;6.70;1.00
14252;DHT22;7210;51.502;10.722;2024-02-16T06:49:42;6.70;1.00
14252;DHT22;7210;51.502;10.722;2024-02-16T06:52:11;6.70;1.00
14252;DHT22;7210;51.502;10.722;2024-02-16T06:54:39;6.70;1.00
14252;DHT22;7210;51.502;10.722;2024-02-16T06:57:07;6.70;1.00
14252;DHT22;7210;51.502;10.722;2024-02-16T06:59:34;6.70;1.00
14252;DHT22;7210;51.502;10.722;2024-02-16T07:02:02;6.70;1.00
14252;DHT22;7210;51.502;10.722;2024-02-16T07:04:29;6.80;1.00
14252;DHT22;7210;51.502;10.722;2024-02-16T07:06:56;6.90;1.00
14252;DHT22;7210;51.502;10.722;2024-02-16T07:09:23;6.90;1.00
14252;DHT22;7210;51.502;10.722;2024-02-16T07:11:51;7.10;1.00
14252;DHT22;7210;51.502;10.722;2024-02-16T07:14:20;7.00;1.00
14252;DHT22;7210;51.502;10.722;2024-02-16T07:16:48;7.10;1.00
14252;DHT22;7210;51.502;10.722;2024-02-16T07:19:15;7.10;1.00
14252;DHT22;7210;51.502;10.722;2024-02-16T07:21:43;7.20;1.00
14252;DHT22;7210;51.502;10.722;2024-02-16T07:24:11;7.20;1.00
14252;DHT22;7210;51.502;10.722;2024-02-16T07:26:38;7.20;1.00
14252;DHT22;7210;51.502;10.722;2024-02-16T07:29:05;7.30;1.00
14252;DHT22;7210;51.502;10.722;2024-02-16T07:31:34;7.20;1.00
14252;DHT22;7210;51.502;10.722;2024-02-16T07:34:02;7.30;1.00
14252;DHT22;7210;51.502;10.722;2024-02-16T07:36:30;7.30;1.00
14252;DHT22;7210;51.502;10.722;2024-02-16T07:38:57;7.30;1.00
14252;DHT22;7210;51.502;10.722;2024-02-16T07:41:25;7.30;1.00
14252;DHT22;7210;51.502;10.722;2024-02-16T07:43:53;7.40;1.00
14252;DHT22;7210;51.502;10.722;2024-02-16T07:46:20;7.40;1.00
14252;DHT22;7210;51.502;10.722;2024-02-16T07:48:50;7.50;1.00
14252;DHT22;7210;51.502;10.722;2024-02-16T07:51:17;7.50;1.00
14252;DHT22;7210;51.502;10.722;2024-02-16T07:53:44;7.60;1.00
14252;DHT22;7210;51.502;10.722;2024-02-16T07:56:12;7.70;1.00
14252;DHT22;7210;51.502;10.722;2024-02-16T07:58:41;8.00;1.00
14252;DHT22;7210;51.502;10.722;2024-02-16T08:01:08;8.10;1.00
14252;DHT22;7210;51.502;10.722;2024-02-16T08:03:37;8.20;1.00
14252;DHT22;7210;51.502;10.722;2024-02-16T08:06:08;8.30;1.00
14252;DHT22;7210;51.502;10.722;2024-02-16T08:08:35;8.30;1.00
14252;DHT22;7210;51.502;10.722;2024-02-16T08:11:02;8.30;1.00
14252;DHT22;7210;51.502;10.722;2024-02-16T08:13:30;8.40;1.00
14252;DHT22;7210;51.502;10.722;2024-02-16T08:15:58;8.40;1.00
14252;DHT22;7210;51.502;10.722;2024-02-16T08:18:25;8.40;1.00
14252;DHT22;7210;51.502;10.722;2024-02-16T08:20:52;8.50;1.00
14252;DHT22;7210;51.502;10.722;2024-02-16T08:23:20;8.50;1.00
14252;DHT22;7210;51.502;10.722;2024-02-16T08:25:51;8.50;1.00
14252;DHT22;7210;51.502;10.722;2024-02-16T08:28:18;8.50;8.20
14252;DHT22;7210;51.502;10.722;2024-02-16T08:30:45;8.50;1.00
14252;DHT22;7210;51.502;10.722;2024-02-16T08:33:13;8.50;1.00
14252;DHT22;7210;51.502;10.722;2024-02-16T08:35:40;8.50;1.00
14252;DHT22;7210;51.502;10.722;2024-02-16T08:38:07;8.50;1.00
14252;DHT22;7210;51.502;10.722;2024-02-16T08:40:37;8.60;1.00
14252;DHT22;7210;51.502;10.722;2024-02-16T08:43:05;8.70;1.00
14252;DHT22;7210;51.502;10.722;2024-02-16T08:45:33;8.80;1.00
14252;DHT22;7210;51.502;10.722;2024-02-16T08:48:00;8.90;1.00
14252;DHT22;7210;51.502;10.722;2024-02-16T08:50:33;9.00;1.00
14252;DHT22;7210;51.502;10.722;2024-02-16T08:53:04;9.00;1.00
14252;DHT22;7210;51.502;10.722;2024-02-16T08:55:31;9.10;1.00
14252;DHT22;7210;51.502;10.722;2024-02-16T08:58:00;9.20;1.00
14252;DHT22;7210;51.502;10.722;2024-02-16T09:00:27;9.20;1.00
14252;DHT22;7210;51.502;10.722;2024-02-16T09:02:54;9.20;13.30
14252;DHT22;7210;51.502;10.722;2024-02-16T09:05:23;9.30;15.70
14252;DHT22;7210;51.502;10.722;2024-02-16T09:07:50;9.40;46.60
14252;DHT22;7210;51.502;10.722;2024-02-16T09:10:17;9.40;95.10
14252;DHT22;7210;51.502;10.722;2024-02-16T09:12:44;9.40;99.90
14252;DHT22;7210;51.502;10.722;2024-02-16T09:15:13;9.40;99.90
14252;DHT22;7210;51.502;10.722;2024-02-16T09:17:40;9.40;99.90
14252;DHT22;7210;51.502;10.722;2024-02-16T09:20:10;9.40;99.90
14252;DHT22;7210;51.502;10.722;2024-02-16T09:22:40;9.40;99.90
14252;DHT22;7210;51.502;10.722;2024-02-16T09:25:07;9.50;99.90
14252;DHT22;7210;51.502;10.722;2024-02-16T09:27:34;9.50;99.90
14252;DHT22;7210;51.502;10.722;2024-02-16T09:30:10;9.50;99.90
14252;DHT22;7210;51.502;10.722;2024-02-16T09:32:45;9.60;99.90
14252;DHT22;7210;51.502;10.722;2024-02-16T09:35:12;9.70;99.90
14252;DHT22;7210;51.502;10.722;2024-02-16T09:37:40;9.80;99.90
14252;DHT22;7210;51.502;10.722;2024-02-16T09:40:12;9.90;99.90
14252;DHT22;7210;51.502;10.722;2024-02-16T09:42:39;10.00;99.90
14252;DHT22;7210;51.502;10.722;2024-02-16T09:45:07;10.20;99.90
14252;DHT22;7210;51.502;10.722;2024-02-16T09:47:41;10.40;99.90
14252;DHT22;7210;51.502;10.722;2024-02-16T09:50:16;10.50;99.90
14252;DHT22;7210;51.502;10.722;2024-02-16T09:52:47;10.50;99.90
14252;DHT22;7210;51.502;10.722;2024-02-16T09:55:16;10.60;99.90
14252;DHT22;7210;51.502;10.722;2024-02-16T09:57:44;10.60;99.90
14252;DHT22;7210;51.502;10.722;2024-02-16T10:00:12;10.70;99.90
14252;DHT22;7210;51.502;10.722;2024-02-16T10:02:47;10.70;99.90
14252;DHT22;7210;51.502;10.722;2024-02-16T10:05:15;10.80;99.90
14252;DHT22;7210;51.502;10.722;2024-02-16T10:07:44;10.90;99.90
14252;DHT22;7210;51.502;10.722;2024-02-16T10:10:21;11.00;99.90
14252;DHT22;7210;51.502;10.722;2024-02-16T10:12:49;11.10;99.90
14252;DHT22;7210;51.502;10.722;2024-02-16T10:15:20;11.20;99.90
14252;DHT22;7210;51.502;10.722;2024-02-16T10:17:58;11.40;99.90
14252;DHT22;7210;51.502;10.722;2024-02-16T10:20:27;11.50;99.90
14252;DHT22;7210;51.502;10.722;2024-02-16T10:23:10;11.60;99.90
14252;DHT22;7210;51.502;10.722;2024-02-16T10:25:40;11.70;99.90
14252;DHT22;7210;51.502;10.722;2024-02-16T10:28:09;11.80;99.90
14252;DHT22;7210;51.502;10.722;2024-02-16T10:30:40;12.10;99.90
14252;DHT22;7210;51.502;10.722;2024-02-16T10:33:11;12.00;99.90
14252;DHT22;7210;51.502;10.722;2024-02-16T10:35:41;12.10;99.90
14252;DHT22;7210;51.502;10.722;2024-02-16T10:38:10;12.20;99.90
14252;DHT22;7210;51.502;10.722;2024-02-16T10:40:39;12.30;99.90
14252;DHT22;7210;51.502;10.722;2024-02-16T10:43:08;12.30;99.90
14252;DHT22;7210;51.502;10.722;2024-02-16T10:45:40;12.30;99.90
14252;DHT22;7210;51.502;10.722;2024-02-16T10:48:07;12.30;99.90
14252;DHT22;7210;51.502;10.722;2024-02-16T10:50:37;12.40;99.90
14252;DHT22;7210;51.502;10.722;2024-02-16T10:53:09;12.40;99.90
14252;DHT22;7210;51.502;10.722;2024-02-16T10:55:39;12.40;99.90
14252;DHT22;7210;51.502;10.722;2024-02-16T10:58:17;12.40;99.90
14252;DHT22;7210;51.502;10.722;2024-02-16T11:00:52;12.40;99.90
14252;DHT22;7210;51.502;10.722;2024-02-16T11:03:24;12.30;99.90
14252;DHT22;7210;51.502;10.722;2024-02-16T11:05:59;12.30;99.90
14252;DHT22;7210;51.502;10.722;2024-02-16T11:08:26;12.30;99.90
14252;DHT22;7210;51.502;10.722;2024-02-16T11:10:54;12.30;99.90
14252;DHT22;7210;51.502;10.722;2024-02-16T11:13:36;12.30;99.90
14252;DHT22;7210;51.502;10.722;2024-02-16T11:16:07;12.30;99.90
14252;DHT22;7210;51.502;10.722;2024-02-16T11:18:39;12.40;99.90
14252;DHT22;7210;51.502;10.722;2024-02-16T11:21:12;12.50;99.90
14252;DHT22;7210;51.502;10.722;2024-02-16T11:23:42;12.60;99.90
14252;DHT22;7210;51.502;10.722;2024-02-16T11:26:11;12.70;99.90
14252;DHT22;7210;51.502;10.722;2024-02-16T11:28:40;12.80;99.90
14252;DHT22;7210;51.502;10.722;2024-02-16T11:31:08;12.80;99.90
14252;DHT22;7210;51.502;10.722;2024-02-16T11:33:35;12.90;99.90
14252;DHT22;7210;51.502;10.722;2024-02-16T11:36:04;13.10;99.90
14252;DHT22;7210;51.502;10.722;2024-02-16T11:38:35;13.10;99.90
14252;DHT22;7210;51.502;10.722;2024-02-16T11:41:04;13.30;99.90
14252;DHT22;7210;51.502;10.722;2024-02-16T11:43:33;13.40;99.90
14252;DHT22;7210;51.502;10.722;2024-02-16T11:46:11;13.50;99.90
14252;DHT22;7210;51.502;10.722;2024-02-16T11:48:39;13.60;99.90
14252;DHT22;7210;51.502;10.722;2024-02-16T11:51:06;13.50;99.90
14252;DHT22;7210;51.502;10.722;2024-02-16T11:53:35;13.60;99.90
14252;DHT22;7210;51.502;10.722;2024-02-16T11:56:02;13.60;99.90
14252;DHT22;7210;51.502;10.722;2024-02-16T11:58:30;13.60;99.90
14252;DHT22;7210;51.502;10.722;2024-02-16T12:00:57;13.70;99.90
14252;DHT22;7210;51.502;10.722;2024-02-16T12:03:25;13.70;99.90
14252;DHT22;7210;51.502;10.722;2024-02-16T12:05:55;13.70;99.90
14252;DHT22;7210;51.502;10.722;2024-02-16T12:08:23;13.60;99.90
14252;DHT22;7210;51.502;10.722;2024-02-16T12:10:52;13.60;99.90
14252;DHT22;7210;51.502;10.722;2024-02-16T12:13:20;13.50;99.90
14252;DHT22;7210;51.502;10.722;2024-02-16T12:15:49;13.50;99.90
14252;DHT22;7210;51.502;10.722;2024-02-16T12:18:20;13.60;99.90
14252;DHT22;7210;51.502;10.722;2024-02-16T12:20:58;13.60;99.90
14252;DHT22;7210;51.502;10.722;2024-02-16T12:23:26;13.60;99.90
14252;DHT22;7210;51.502;10.722;2024-02-16T12:25:57;13.70;99.90
14252;DHT22;7210;51.502;10.722;2024-02-16T12:28:27;13.70;99.90
14252;DHT22;7210;51.502;10.722;2024-02-16T12:30:56;13.80;99.90
14252;DHT22;7210;51.502;10.722;2024-02-16T12:33:23;13.90;99.90
14252;DHT22;7210;51.502;10.722;2024-02-16T12:35:51;13.90;99.90
14252;DHT22;7210;51.502;10.722;2024-02-16T12:38:18;14.10;99.90
14252;DHT22;7210;51.502;10.722;2024-02-16T12:40:45;14.30;99.90
14252;DHT22;7210;51.502;10.722;2024-02-16T12:43:14;14.30;99.90
14252;DHT22;7210;51.502;10.722;2024-02-16T12:45:42;14.30;99.90
14252;DHT22;7210;51.502;10.722;2024-02-16T12:48:09;14.20;99.90
14252;DHT22;7210;51.502;10.722;2024-02-16T12:50:38;14.20;99.90
14252;DHT22;7210;51.502;10.722;2024-02-16T12:53:07;14.20;99.90
14252;DHT22;7210;51.502;10.722;2024-02-16T12:55:34;14.20;99.90
14252;DHT22;7210;51.502;10.722;2024-02-16T12:58:02;14.20;99.90
14252;DHT22;7210;51.502;10.722;2024-02-16T13:00:35;14.30;99.90
14252;DHT22;7210;51.502;10.722;2024-02-16T13:03:02;14.30;99.90
14252;DHT22;7210;51.502;10.722;2024-02-16T13:05:30;14.30;99.90
14252;DHT22;7210;51.502;10.722;2024-02-16T13:07:58;14.20;99.90
14252;DHT22;7210;51.502;10.722;2024-02-16T13:10:27;14.20;99.90
14252;DHT22;7210;51.502;10.722;2024-02-16T13:12:55;14.10;99.90
14252;DHT22;7210;51.502;10.722;2024-02-16T13:15:22;14.20;99.90
14252;DHT22;7210;51.502;10.722;2024-02-16T13:17:51;14.30;99.90
14252;DHT22;7210;51.502;10.722;2024-02-16T13:20:18;14.40;99.90
14252;DHT22;7210;51.502;10.722;2024-02-16T13:22:45;14.50;99.90
14252;DHT22;7210;51.502;10.722;2024-02-16T13:25:15;14.60;99.90
14252;DHT22;7210;51.502;10.722;2024-02-16T13:27:43;14.60;99.90
14252;DHT22;7210;51.502;10.722;2024-02-16T13:30:11;14.70;99.90
14252;DHT22;7210;51.502;10.722;2024-02-16T13:32:39;14.80;99.90
14252;DHT22;7210;51.502;10.722;2024-02-16T13:35:07;14.70;99.90
14252;DHT22;7210;51.502;10.722;2024-02-16T13:37:34;14.80;99.90
14252;DHT22;7210;51.502;10.722;2024-02-16T13:40:03;14.80;99.90
14252;DHT22;7210;51.502;10.722;2024-02-16T13:42:33;14.80;99.90
14252;DHT22;7210;51.502;10.722;2024-02-16T13:45:00;14.90;99.90
14252;DHT22;7210;51.502;10.722;2024-02-16T13:47:27;14.90;99.90
14252;DHT22;7210;51.502;10.722;2024-02-16T13:49:54;14.90;99.90
14252;DHT22;7210;51.502;10.722;2024-02-16T13:52:24;14.90;99.90
14252;DHT22;7210;51.502;10.722;2024-02-16T13:54:51;15.00;99.90
14252;DHT22;7210;51.502;10.722;2024-02-16T13:57:21;15.00;99.90
14252;DHT22;7210;51.502;10.722;2024-02-16T13:59:48;15.00;99.90
14252;DHT22;7210;51.502;10.722;2024-02-16T14:02:16;15.00;99.90
14252;DHT22;7210;51.502;10.722;2024-02-16T14:04:43;15.10;99.90
14252;DHT22;7210;51.502;10.722;2024-02-16T14:07:11;15.20;99.90
14252;DHT22;7210;51.502;10.722;2024-02-16T14:09:40;15.20;99.90
14252;DHT22;7210;51.502;10.722;2024-02-16T14:12:07;15.20;99.90
14252;DHT22;7210;51.502;10.722;2024-02-16T14:14:34;15.30;99.90
14252;DHT22;7210;51.502;10.722;2024-02-16T14:17:01;15.30;99.90
14252;DHT22;7210;51.502;10.722;2024-02-16T14:19:29;15.30;99.90
14252;DHT22;7210;51.502;10.722;2024-02-16T14:21:56;15.30;99.90
14252;DHT22;7210;51.502;10.722;2024-02-16T14:24:23;15.40;99.90
14252;DHT22;7210;51.502;10.722;2024-02-16T14:26:52;15.40;99.90
14252;DHT22;7210;51.502;10.722;2024-02-16T14:29:19;15.30;99.90
14252;DHT22;7210;51.502;10.722;2024-02-16T14:31:46;15.40;99.90
14252;DHT22;7210;51.502;10.722;2024-02-16T14:34:14;15.30;99.90
14252;DHT22;7210;51.502;10.722;2024-02-16T14:36:41;15.30;99.90
14252;DHT22;7210;51.502;10.722;2024-02-16T14:39:08;15.40;99.90
14252;DHT22;7210;51.502;10.722;2024-02-16T14:41:37;15.30;99.90
14252;DHT22;7210;51.502;10.722;2024-02-16T14:44:11;15.30;99.90
14252;DHT22;7210;51.502;10.722;2024-02-16T14:46:38;15.30;99.90
14252;DHT22;7210;51.502;10.722;2024-02-16T14:49:09;15.30;99.90
14252;DHT22;7210;51.502;10.722;2024-02-16T14:51:40;15.20;99.90
14252;DHT22;7210;51.502;10.722;2024-02-16T14:54:07;15.10;99.90
14252;DHT22;7210;51.502;10.722;2024-02-16T14:56:35;15.20;99.90
14252;DHT22;7210;51.502;10.722;2024-02-16T14:59:02;15.10;99.90
14252;DHT22;7210;51.502;10.722;2024-02-16T15:01:32;15.10;99.90
14252;DHT22;7210;51.502;10.722;2024-02-16T15:03:59;15.20;99.90
14252;DHT22;7210;51.502;10.722;2024-02-16T15:06:27;15.10;99.90
14252;DHT22;7210;51.502;10.722;2024-02-16T15:08:54;15.00;99.90
14252;DHT22;7210;51.502;10.722;2024-02-16T15:11:21;15.00;99.90
14252;DHT22;7210;51.502;10.722;2024-02-16T15:13:48;14.80;99.90
14252;DHT22;7210;51.502;10.722;2024-02-16T15:16:21;14.90;99.90
14252;DHT22;7210;51.502;10.722;2024-02-16T15:18:50;14.80;99.90
14252;DHT22;7210;51.502;10.722;2024-02-16T15:21:17;14.70;99.90
14252;DHT22;7210;51.502;10.722;2024-02-16T15:23:44;14.70;99.90
14252;DHT22;7210;51.502;10.722;2024-02-16T15:26:11;14.60;99.90
14252;DHT22;7210;51.502;10.722;2024-02-16T15:28:39;14.60;99.90
14252;DHT22;7210;51.502;10.722;2024-02-16T15:31:07;14.50;99.90
14252;DHT22;7210;51.502;10.722;2024-02-16T15:33:40;14.40;99.90
14252;DHT22;7210;51.502;10.722;2024-02-16T15:36:09;14.40;99.90
14252;DHT22;7210;51.502;10.722;2024-02-16T15:38:36;14.30;99.90
14252;DHT22;7210;51.502;10.722;2024-02-16T15:41:03;14.20;99.90
14252;DHT22;7210;51.502;10.722;2024-02-16T15:43:30;14.20;99.90
14252;DHT22;7210;51.502;10.722;2024-02-16T15:46:04;14.20;99.90
14252;DHT22;7210;51.502;10.722;2024-02-16T15:48:31;14.30;99.90
14252;DHT22;7210;51.502;10.722;2024-02-16T15:50:58;14.30;99.90
14252;DHT22;7210;51.502;10.722;2024-02-16T15:53:26;14.30;99.90
14252;DHT22;7210;51.502;10.722;2024-02-16T15:55:56;14.20;99.90
14252;DHT22;7210;51.502;10.722;2024-02-16T15:58:23;14.20;99.90